createdAt,value
2017-11-22T00:00:19.012Z,23.30
2017-11-22T00:01:19.007Z,20.20
2017-11-22T00:02:19.001Z,19.90
2017-11-22T00:03:18.996Z,19.00
2017-11-22T00:04:18.985Z,17.50
2017-11-22T00:05:18.979Z,21.00
2017-11-22T00:06:18.977Z,21.60
2017-11-22T00:07:18.969Z,18.00
2017-11-22T00:08:18.963Z,22.50
2017-11-22T00:09:18.960Z,19.40
2017-11-22T00:10:18.952Z,18.90
2017-11-22T00:11:18.947Z,16.20
2017-11-22T00:12:18.945Z,18.70
2017-11-22T00:13:18.940Z,18.40
2017-11-22T00:14:18.934Z,20.10
2017-11-22T00:15:18.929Z,17.30
2017-11-22T00:16:18.924Z,18.50
2017-11-22T00:17:18.916Z,19.20
2017-11-22T00:18:18.912Z,20.00
2017-11-22T00:19:18.906Z,18.60
2017-11-22T00:20:18.895Z,18.90
2017-11-22T00:21:18.890Z,18.70
2017-11-22T00:22:18.889Z,19.90
2017-11-22T00:23:18.879Z,20.50
2017-11-22T00:24:18.873Z,19.50
2017-11-22T00:25:18.868Z,18.50
2017-11-22T00:26:18.867Z,15.90
2017-11-22T00:27:18.856Z,20.90
2017-11-22T00:28:18.853Z,17.20
2017-11-22T00:29:18.851Z,18.50
2017-11-22T00:30:18.842Z,19.70
2017-11-22T00:31:18.846Z,16.40
2017-11-22T00:32:18.831Z,15.60
2017-11-22T00:33:18.826Z,16.70
2017-11-22T00:34:18.821Z,16.60
2017-11-22T00:35:18.814Z,17.50
2017-11-22T00:36:18.805Z,23.10
2017-11-22T00:37:18.799Z,20.00
2017-11-22T00:38:18.796Z,15.80
2017-11-22T00:39:18.788Z,14.60
2017-11-22T00:40:18.782Z,16.90
2017-11-22T00:41:18.776Z,18.70
2017-11-22T00:42:18.778Z,15.60
2017-11-22T00:43:18.766Z,15.10
2017-11-22T00:44:18.764Z,15.50
2017-11-22T00:45:18.758Z,14.80
2017-11-22T00:46:18.754Z,17.60
2017-11-22T00:47:18.753Z,16.00
2017-11-22T00:48:18.741Z,14.50
2017-11-22T00:49:18.736Z,16.00
2017-11-22T00:50:18.730Z,18.70
2017-11-22T00:51:18.725Z,16.90
2017-11-22T00:52:18.715Z,16.20
2017-11-22T00:53:18.708Z,17.40
2017-11-22T00:54:18.703Z,16.60
2017-11-22T00:55:18.699Z,14.10
2017-11-22T00:56:18.698Z,14.40
2017-11-22T00:57:18.685Z,18.80
2017-11-22T00:58:18.681Z,16.20
2017-11-22T00:59:18.676Z,15.10
2017-11-22T01:00:18.674Z,13.60
2017-11-22T01:01:18.670Z,18.70
2017-11-22T01:02:18.664Z,15.10
2017-11-22T01:03:18.658Z,18.10
2017-11-22T01:04:18.652Z,15.30
2017-11-22T01:05:18.645Z,14.90
2017-11-22T01:06:18.641Z,16.30
2017-11-22T01:07:18.635Z,15.20
2017-11-22T01:08:18.627Z,16.20
2017-11-22T01:09:18.621Z,17.00
2017-11-22T01:10:18.614Z,18.60
2017-11-22T01:11:18.609Z,16.30
2017-11-22T01:12:18.608Z,14.00
2017-11-22T01:13:18.601Z,17.00
2017-11-22T01:14:18.597Z,16.00
2017-11-22T01:15:18.591Z,16.50
2017-11-22T01:16:18.581Z,16.30
2017-11-22T01:17:18.576Z,17.70
2017-11-22T01:18:18.570Z,15.00
2017-11-22T01:19:18.565Z,14.60
2017-11-22T01:20:18.559Z,14.70
2017-11-22T01:21:18.552Z,18.20
2017-11-22T01:22:18.551Z,16.60
2017-11-22T01:23:18.543Z,13.20
2017-11-22T01:24:18.540Z,19.60
2017-11-22T01:25:18.534Z,16.80
2017-11-22T01:26:18.531Z,14.50
2017-11-22T01:27:18.525Z,17.60
2017-11-22T01:28:18.518Z,18.40
2017-11-22T01:29:18.522Z,15.70
2017-11-22T01:30:18.508Z,15.20
2017-11-22T01:31:18.502Z,14.40
2017-11-22T01:32:18.493Z,12.60
2017-11-22T01:33:18.486Z,16.50
2017-11-22T01:34:18.483Z,14.40
2017-11-22T01:35:18.477Z,15.80
2017-11-22T01:36:18.478Z,14.60
2017-11-22T01:37:18.467Z,14.70
2017-11-22T01:38:18.460Z,12.90
2017-11-22T01:39:18.456Z,15.90
2017-11-22T01:40:18.454Z,16.90
2017-11-22T01:41:18.449Z,17.40
2017-11-22T01:42:18.443Z,16.00
2017-11-22T01:43:18.437Z,17.60
2017-11-22T01:44:18.431Z,18.00
2017-11-22T01:45:18.425Z,16.60
2017-11-22T01:46:18.421Z,17.60
2017-11-22T01:47:18.416Z,15.60
2017-11-22T01:48:18.404Z,15.10
2017-11-22T01:49:18.399Z,17.30
2017-11-22T01:50:18.394Z,17.50
2017-11-22T01:51:18.393Z,16.20
2017-11-22T01:52:18.381Z,18.60
2017-11-22T01:53:18.378Z,15.60
2017-11-22T01:54:18.372Z,17.10
2017-11-22T01:55:18.367Z,15.80
2017-11-22T01:56:18.365Z,16.80
2017-11-22T01:57:18.364Z,19.30
2017-11-22T01:58:18.355Z,19.10
2017-11-22T01:59:18.348Z,18.70
2017-11-22T02:00:18.343Z,13.70
2017-11-22T02:01:18.336Z,19.80
2017-11-22T02:02:18.333Z,16.90
2017-11-22T02:03:18.329Z,17.90
2017-11-22T02:04:18.316Z,17.30
2017-11-22T02:05:18.314Z,17.30
2017-11-22T02:06:18.306Z,14.30
2017-11-22T02:07:18.302Z,12.90
2017-11-22T02:08:18.297Z,15.70
2017-11-22T02:09:18.289Z,17.10
2017-11-22T02:10:18.287Z,16.00
2017-11-22T02:11:18.279Z,15.80
2017-11-22T02:12:18.277Z,16.30
2017-11-22T02:13:18.274Z,11.30
2017-11-22T02:14:18.267Z,13.10
2017-11-22T02:15:18.264Z,16.00
2017-11-22T02:16:18.250Z,15.80
2017-11-22T02:17:18.255Z,13.40
2017-11-22T02:18:18.240Z,14.00
2017-11-22T02:19:18.236Z,12.80
2017-11-22T02:20:18.234Z,15.30
2017-11-22T02:21:18.230Z,13.60
2017-11-22T02:22:18.223Z,19.70
2017-11-22T02:23:18.218Z,13.30
2017-11-22T02:24:18.212Z,14.00
2017-11-22T02:25:18.208Z,14.70
2017-11-22T02:26:18.211Z,13.70
2017-11-22T02:27:18.198Z,15.10
2017-11-22T02:28:18.187Z,14.90
2017-11-22T02:29:18.185Z,12.10
2017-11-22T02:30:18.182Z,15.10
2017-11-22T02:31:18.171Z,18.10
2017-11-22T02:32:18.166Z,16.90
2017-11-22T02:33:18.160Z,12.60
2017-11-22T02:34:18.156Z,12.70
2017-11-22T02:35:18.149Z,13.00
2017-11-22T02:36:18.148Z,11.80
2017-11-22T02:37:18.144Z,14.90
2017-11-22T02:38:18.137Z,14.80
2017-11-22T02:39:18.132Z,15.20
2017-11-22T02:40:18.125Z,13.90
2017-11-22T02:41:18.119Z,14.10
2017-11-22T02:42:18.116Z,12.40
2017-11-22T02:43:18.112Z,12.00
2017-11-22T02:44:18.099Z,14.00
2017-11-22T02:45:18.097Z,14.50
2017-11-22T02:46:18.089Z,12.40
2017-11-22T02:47:18.086Z,13.50
2017-11-22T02:48:18.080Z,15.00
2017-11-22T02:49:18.072Z,14.50
2017-11-22T02:50:18.068Z,16.70
2017-11-22T02:51:18.064Z,17.10
2017-11-22T02:52:18.062Z,13.60
2017-11-22T02:53:18.056Z,14.00
2017-11-22T02:54:18.054Z,12.10
2017-11-22T02:55:18.047Z,14.40
2017-11-22T02:56:18.046Z,14.60
2017-11-22T02:57:18.034Z,13.90
2017-11-22T02:58:18.032Z,13.10
2017-11-22T02:59:18.025Z,13.50
2017-11-22T03:00:18.015Z,15.00
2017-11-22T03:01:18.010Z,15.90
2017-11-22T03:02:18.005Z,12.60
2017-11-22T03:03:18.000Z,13.20
2017-11-22T03:04:17.993Z,16.60
2017-11-22T03:05:17.996Z,15.60
2017-11-22T03:06:17.982Z,13.20
2017-11-22T03:07:17.978Z,11.40
2017-11-22T03:08:17.977Z,12.70
2017-11-22T03:09:17.970Z,14.00
2017-11-22T03:10:17.966Z,11.80
2017-11-22T03:11:17.961Z,12.30
2017-11-22T03:12:17.955Z,12.60
2017-11-22T03:13:17.949Z,14.60
2017-11-22T03:14:17.944Z,13.50
2017-11-22T03:15:17.940Z,13.40
2017-11-22T03:16:17.932Z,12.40
2017-11-22T03:17:17.925Z,16.00
2017-11-22T03:18:17.919Z,12.40
2017-11-22T03:19:17.915Z,14.80
2017-11-22T03:20:17.912Z,15.30
2017-11-22T03:21:17.907Z,11.50
2017-11-22T03:22:17.901Z,12.70
2017-11-22T03:23:17.896Z,12.00
2017-11-22T03:24:17.887Z,12.00
2017-11-22T03:25:17.881Z,12.30
2017-11-22T03:26:17.876Z,12.20
2017-11-22T03:27:17.872Z,12.90
2017-11-22T03:28:17.864Z,12.10
2017-11-22T03:29:17.859Z,11.60
2017-11-22T03:30:17.857Z,13.10
2017-11-22T03:31:17.853Z,13.20
2017-11-22T03:32:17.849Z,10.30
2017-11-22T03:33:17.850Z,11.40
2017-11-22T03:34:17.838Z,11.10
2017-11-22T03:35:17.834Z,17.40
2017-11-22T03:36:17.828Z,15.00
2017-11-22T03:37:17.824Z,10.90
2017-11-22T03:38:17.820Z,13.50
2017-11-22T03:39:17.811Z,11.60
2017-11-22T03:40:17.802Z,10.40
2017-11-22T03:41:17.796Z,14.20
2017-11-22T03:42:17.791Z,12.90
2017-11-22T03:43:17.786Z,10.10
2017-11-22T03:44:17.780Z,11.90
2017-11-22T03:45:17.775Z,11.10
2017-11-22T03:46:17.770Z,11.50
2017-11-22T03:47:17.777Z,13.40
2017-11-22T03:48:17.763Z,18.10
2017-11-22T03:49:17.757Z,14.50
2017-11-22T03:50:17.752Z,12.40
2017-11-22T03:51:17.749Z,13.70
2017-11-22T03:52:17.742Z,11.10
2017-11-22T03:53:17.736Z,12.20
2017-11-22T03:54:17.732Z,11.90
2017-11-22T03:55:17.727Z,10.70
2017-11-22T03:56:17.716Z,10.10
2017-11-22T03:57:17.711Z,11.60
2017-11-22T03:58:17.705Z,9.60
2017-11-22T03:59:17.702Z,20.00
2017-11-22T04:00:17.694Z,15.30
2017-11-22T04:01:17.689Z,12.90
2017-11-22T04:02:17.684Z,13.70
2017-11-22T04:03:17.680Z,16.40
2017-11-22T04:04:17.683Z,16.50
2017-11-22T04:05:17.674Z,13.00
2017-11-22T04:06:17.667Z,13.90
2017-11-22T04:07:17.673Z,12.80
2017-11-22T04:08:17.656Z,12.00
2017-11-22T04:09:17.651Z,13.80
2017-11-22T04:10:17.647Z,11.50
2017-11-22T04:11:17.643Z,10.30
2017-11-22T04:12:17.630Z,11.90
2017-11-22T04:13:17.626Z,15.40
2017-11-22T04:14:17.621Z,12.60
2017-11-22T04:15:17.617Z,11.80
2017-11-22T04:16:17.609Z,12.20
2017-11-22T04:17:17.607Z,14.10
2017-11-22T04:18:17.600Z,13.60
2017-11-22T04:19:17.595Z,13.40
2017-11-22T04:20:17.593Z,15.80
2017-11-22T04:21:17.588Z,12.50
2017-11-22T04:22:17.584Z,12.80
2017-11-22T04:23:17.577Z,12.00
2017-11-22T04:24:17.567Z,11.40
2017-11-22T04:25:17.563Z,12.40
2017-11-22T04:26:17.562Z,13.20
2017-11-22T04:27:17.563Z,10.70
2017-11-22T04:28:17.551Z,11.60
2017-11-22T04:29:17.546Z,13.20
2017-11-22T04:30:17.541Z,15.50
2017-11-22T04:31:17.535Z,12.40
2017-11-22T04:32:17.531Z,10.20
2017-11-22T04:33:17.524Z,15.10
2017-11-22T04:34:17.520Z,12.50
2017-11-22T04:35:17.514Z,13.20
2017-11-22T04:36:17.503Z,15.80
2017-11-22T04:37:17.499Z,14.00
2017-11-22T04:38:17.494Z,11.90
2017-11-22T04:39:17.490Z,14.10
2017-11-22T04:40:17.487Z,13.10
2017-11-22T04:41:17.478Z,11.40
2017-11-22T04:42:17.474Z,15.60
2017-11-22T04:43:17.467Z,12.70
2017-11-22T04:44:17.465Z,15.10
2017-11-22T04:45:17.462Z,14.80
2017-11-22T04:46:17.459Z,13.60
2017-11-22T04:47:17.452Z,9.60
2017-11-22T04:48:17.447Z,13.80
2017-11-22T04:49:17.439Z,14.50
2017-11-22T04:50:17.435Z,11.70
2017-11-22T04:51:17.429Z,12.20
2017-11-22T04:52:17.419Z,13.00
2017-11-22T04:53:17.421Z,10.30
2017-11-22T04:54:17.409Z,13.40
2017-11-22T04:55:17.405Z,14.90
2017-11-22T04:56:17.407Z,13.70
2017-11-22T04:57:17.393Z,11.90
2017-11-22T04:58:17.389Z,11.90
2017-11-22T04:59:17.382Z,13.30
2017-11-22T05:00:17.384Z,14.30
2017-11-22T05:01:17.376Z,13.20
2017-11-22T05:02:17.372Z,15.90
2017-11-22T05:03:17.366Z,13.80
2017-11-22T05:04:17.360Z,11.80
2017-11-22T05:05:17.356Z,14.90
2017-11-22T05:06:17.351Z,12.10
2017-11-22T05:07:17.345Z,11.50
2017-11-22T05:08:17.336Z,12.40
2017-11-22T05:09:17.331Z,13.00
2017-11-22T05:10:17.325Z,12.80
2017-11-22T05:11:17.320Z,12.80
2017-11-22T05:12:17.314Z,12.20
2017-11-22T05:13:17.308Z,11.10
2017-11-22T05:14:17.303Z,11.80
2017-11-22T05:15:17.299Z,15.10
2017-11-22T05:16:17.295Z,14.00
2017-11-22T05:17:17.291Z,14.30
2017-11-22T05:18:17.287Z,10.40
2017-11-22T05:19:17.283Z,12.80
2017-11-22T05:20:17.276Z,14.50
2017-11-22T05:21:17.271Z,15.40
2017-11-22T05:22:17.266Z,13.20
2017-11-22T05:23:17.262Z,13.60
2017-11-22T05:24:17.251Z,13.50
2017-11-22T05:25:17.246Z,11.50
2017-11-22T05:26:17.240Z,14.30
2017-11-22T05:27:17.250Z,16.20
2017-11-22T05:28:17.233Z,14.40
2017-11-22T05:29:17.229Z,14.90
2017-11-22T05:30:17.222Z,15.70
2017-11-22T05:31:17.218Z,10.80
2017-11-22T05:32:17.209Z,14.20
2017-11-22T05:33:17.203Z,14.90
2017-11-22T05:34:17.197Z,15.70
2017-11-22T05:35:17.192Z,16.50
2017-11-22T05:36:17.186Z,13.60
2017-11-22T05:37:17.182Z,10.80
2017-11-22T05:38:17.176Z,13.40
2017-11-22T05:39:17.172Z,13.60
2017-11-22T05:40:17.170Z,14.40
2017-11-22T05:41:17.165Z,12.10
2017-11-22T05:42:17.162Z,13.50
2017-11-22T05:43:17.155Z,14.70
2017-11-22T05:44:17.151Z,17.20
2017-11-22T05:45:17.143Z,15.10
2017-11-22T05:46:17.140Z,12.00
2017-11-22T05:47:17.134Z,16.30
2017-11-22T05:48:17.124Z,16.30
2017-11-22T05:49:17.119Z,15.30
2017-11-22T05:50:17.114Z,16.90
2017-11-22T05:51:17.109Z,14.20
2017-11-22T05:52:17.103Z,15.80
2017-11-22T05:53:17.097Z,18.90
2017-11-22T05:54:17.093Z,13.70
2017-11-22T05:55:17.088Z,14.20
2017-11-22T05:56:17.086Z,14.70
2017-11-22T05:57:17.081Z,15.20
2017-11-22T05:58:17.077Z,15.60
2017-11-22T05:59:17.074Z,15.50
2017-11-22T06:00:17.063Z,16.20
2017-11-22T06:01:17.060Z,12.50
2017-11-22T06:02:17.057Z,14.30
2017-11-22T06:03:17.051Z,14.40
2017-11-22T06:04:17.039Z,14.10
2017-11-22T06:05:17.034Z,13.40
2017-11-22T06:06:17.029Z,17.70
2017-11-22T06:07:17.025Z,16.70
2017-11-22T06:08:17.019Z,15.50
2017-11-22T06:09:17.013Z,14.50
2017-11-22T06:10:17.010Z,17.80
2017-11-22T06:11:17.004Z,17.50
2017-11-22T06:12:17.002Z,18.30
2017-11-22T06:13:16.997Z,14.70
2017-11-22T06:14:16.994Z,13.70
2017-11-22T06:15:16.986Z,20.30
2017-11-22T06:16:16.981Z,15.30
2017-11-22T06:17:16.975Z,13.40
2017-11-22T06:18:16.969Z,16.10
2017-11-22T06:19:16.967Z,15.80
2017-11-22T06:20:16.956Z,14.30
2017-11-22T06:21:16.949Z,18.40
2017-11-22T06:22:16.944Z,14.10
2017-11-22T06:23:16.940Z,16.10
2017-11-22T06:24:16.934Z,16.90
2017-11-22T06:25:16.930Z,16.60
2017-11-22T06:26:16.923Z,14.00
2017-11-22T06:27:16.919Z,18.80
2017-11-22T06:28:16.922Z,16.70
2017-11-22T06:29:16.915Z,17.10
2017-11-22T06:30:16.907Z,18.90
2017-11-22T06:31:16.903Z,16.00
2017-11-22T06:32:16.893Z,18.30
2017-11-22T06:33:16.889Z,21.00
2017-11-22T06:34:16.881Z,17.70
2017-11-22T06:35:16.877Z,17.00
2017-11-22T06:36:16.875Z,16.50
2017-11-22T06:37:16.872Z,17.20
2017-11-22T06:38:16.864Z,18.60
2017-11-22T06:39:16.860Z,18.10
2017-11-22T06:40:16.854Z,17.80
2017-11-22T06:41:16.849Z,17.80
2017-11-22T06:42:16.844Z,14.90
2017-11-22T06:43:16.840Z,17.00
2017-11-22T06:44:16.828Z,17.50
2017-11-22T06:45:16.825Z,18.50
2017-11-22T06:46:16.820Z,20.80
2017-11-22T06:47:16.817Z,17.70
2017-11-22T06:48:16.808Z,20.20
2017-11-22T06:49:16.804Z,16.80
2017-11-22T06:50:16.800Z,19.20
2017-11-22T06:51:16.794Z,18.00
2017-11-22T06:52:16.795Z,18.50
2017-11-22T06:53:16.786Z,17.10
2017-11-22T06:54:16.783Z,16.40
2017-11-22T06:55:16.799Z,21.70
2017-11-22T06:56:16.771Z,16.80
2017-11-22T06:57:16.767Z,17.70
2017-11-22T06:58:16.763Z,20.10
2017-11-22T06:59:16.758Z,19.20
2017-11-22T07:00:16.747Z,19.10
2017-11-22T07:01:16.742Z,17.90
2017-11-22T07:02:16.737Z,20.50
2017-11-22T07:03:16.737Z,17.90
2017-11-22T07:04:16.728Z,17.50
2017-11-22T07:05:16.723Z,18.10
2017-11-22T07:06:16.716Z,17.40
2017-11-22T07:07:16.714Z,19.60
2017-11-22T07:08:16.712Z,20.10
2017-11-22T07:09:16.706Z,15.50
2017-11-22T07:10:16.703Z,20.30
2017-11-22T07:11:16.697Z,17.00
2017-11-22T07:12:16.690Z,21.10
2017-11-22T07:13:16.685Z,22.60
2017-11-22T07:14:16.682Z,19.10
2017-11-22T07:15:16.677Z,17.40
2017-11-22T07:16:16.668Z,20.60
2017-11-22T07:17:16.662Z,20.90
2017-11-22T07:18:16.668Z,19.50
2017-11-22T07:19:16.651Z,19.30
2017-11-22T07:20:16.648Z,20.90
2017-11-22T07:21:16.643Z,18.10
2017-11-22T07:22:16.637Z,18.90
2017-11-22T07:23:16.632Z,16.10
2017-11-22T07:24:16.630Z,21.70
2017-11-22T07:25:16.626Z,19.70
2017-11-22T07:26:16.626Z,16.50
2017-11-22T07:27:16.618Z,17.90
2017-11-22T07:28:16.613Z,19.70
2017-11-22T07:29:16.606Z,18.00
2017-11-22T07:30:16.602Z,18.80
2017-11-22T07:31:16.596Z,18.70
2017-11-22T07:32:16.587Z,19.20
2017-11-22T07:33:16.587Z,19.00
2017-11-22T07:34:16.581Z,18.10
2017-11-22T07:35:16.576Z,20.30
2017-11-22T07:36:16.573Z,20.80
2017-11-22T07:37:16.566Z,17.10
2017-11-22T07:38:16.562Z,22.40
2017-11-22T07:39:16.557Z,22.90
2017-11-22T07:40:16.547Z,20.80
2017-11-22T07:41:16.544Z,21.20
2017-11-22T07:42:16.537Z,21.40
2017-11-22T07:43:16.532Z,22.80
2017-11-22T07:44:16.527Z,20.90
2017-11-22T07:45:16.522Z,21.20
2017-11-22T07:46:16.539Z,21.90
2017-11-22T07:47:16.514Z,18.60
2017-11-22T07:48:16.513Z,18.70
2017-11-22T07:49:16.511Z,20.10
2017-11-22T07:50:16.502Z,21.20
2017-11-22T07:51:16.499Z,18.40
2017-11-22T07:52:16.492Z,20.20
2017-11-22T07:53:16.488Z,17.20
2017-11-22T07:54:16.484Z,18.90
2017-11-22T07:55:16.478Z,20.20
2017-11-22T07:56:16.469Z,18.10
2017-11-22T07:57:16.465Z,20.30
2017-11-22T07:58:16.472Z,21.80
2017-11-22T07:59:16.455Z,21.10
2017-11-22T08:00:16.458Z,19.00
2017-11-22T08:01:16.445Z,20.20
2017-11-22T08:02:16.439Z,21.20
2017-11-22T08:03:16.456Z,20.40
2017-11-22T08:04:16.434Z,19.90
2017-11-22T08:05:16.430Z,19.30
2017-11-22T08:06:16.425Z,20.30
2017-11-22T08:07:16.422Z,19.80
2017-11-22T08:08:16.416Z,20.10
2017-11-22T08:09:16.410Z,19.20
2017-11-22T08:10:16.406Z,19.00
2017-11-22T08:11:16.402Z,19.10
2017-11-22T08:12:16.392Z,19.80
2017-11-22T08:13:16.387Z,19.60
2017-11-22T08:14:16.384Z,23.30
2017-11-22T08:15:16.377Z,21.40
2017-11-22T08:16:16.372Z,19.10
2017-11-22T08:17:16.369Z,20.80
2017-11-22T08:18:16.362Z,18.40
2017-11-22T08:19:16.357Z,17.70
2017-11-22T08:20:16.361Z,19.00
2017-11-22T08:21:16.352Z,17.60
2017-11-22T08:22:16.348Z,17.90
2017-11-22T08:23:16.342Z,22.90
2017-11-22T08:24:16.339Z,21.80
2017-11-22T08:25:16.334Z,20.50
2017-11-22T08:26:16.330Z,19.30
2017-11-22T08:27:16.325Z,20.60
2017-11-22T08:28:16.314Z,19.20
2017-11-22T08:29:16.311Z,19.60
2017-11-22T08:30:16.304Z,20.20
2017-11-22T08:31:16.301Z,17.10
2017-11-22T08:32:16.295Z,23.30
2017-11-22T08:33:16.290Z,19.80
2017-11-22T08:34:16.286Z,19.00
2017-11-22T08:35:16.281Z,21.20
2017-11-22T08:36:16.290Z,24.40
2017-11-22T08:37:16.278Z,17.50
2017-11-22T08:38:16.274Z,20.70
2017-11-22T08:39:16.266Z,19.20
2017-11-22T08:40:16.262Z,17.80
2017-11-22T08:41:16.257Z,20.70
2017-11-22T08:42:16.252Z,17.60
2017-11-22T08:43:16.247Z,21.70
2017-11-22T08:44:16.267Z,18.50
2017-11-22T08:45:16.234Z,22.40
2017-11-22T08:46:16.229Z,22.30
2017-11-22T08:47:16.225Z,18.90
2017-11-22T08:48:16.218Z,22.60
2017-11-22T08:49:16.216Z,20.50
2017-11-22T08:50:16.211Z,18.80
2017-11-22T08:51:16.214Z,20.50
2017-11-22T08:52:16.204Z,16.90
2017-11-22T08:53:16.200Z,21.20
2017-11-22T08:54:16.196Z,18.60
2017-11-22T08:55:16.191Z,19.40
2017-11-22T08:56:16.186Z,19.20
2017-11-22T08:57:16.184Z,18.00
2017-11-22T08:58:16.177Z,21.60
2017-11-22T08:59:16.173Z,21.60
2017-11-22T09:00:16.165Z,16.90
2017-11-22T09:01:16.165Z,17.50
2017-11-22T09:02:16.156Z,21.40
2017-11-22T09:03:16.151Z,18.70
2017-11-22T09:04:16.146Z,19.00
2017-11-22T09:05:16.141Z,19.70
2017-11-22T09:06:16.137Z,20.80
2017-11-22T09:07:16.133Z,20.90
2017-11-22T09:08:16.131Z,18.30
2017-11-22T09:09:16.127Z,20.30
2017-11-22T09:10:16.124Z,19.00
2017-11-22T09:11:16.119Z,17.30
2017-11-22T09:12:16.113Z,21.30
2017-11-22T09:13:16.109Z,22.30
2017-11-22T09:14:16.106Z,20.90
2017-11-22T09:15:16.102Z,22.40
2017-11-22T09:16:16.110Z,24.50
2017-11-22T09:17:16.087Z,18.70
2017-11-22T09:18:16.085Z,19.00
2017-11-22T09:19:16.079Z,18.80
2017-11-22T09:20:16.073Z,18.80
2017-11-22T09:21:16.071Z,21.50
2017-11-22T09:22:16.072Z,20.20
2017-11-22T09:23:16.062Z,19.50
2017-11-22T09:24:16.062Z,18.80
2017-11-22T09:25:16.057Z,20.20
2017-11-22T09:26:16.053Z,23.20
2017-11-22T09:27:16.049Z,17.40
2017-11-22T09:28:16.044Z,17.70
2017-11-22T09:29:16.054Z,16.90
2017-11-22T09:30:16.035Z,18.00
2017-11-22T09:31:16.032Z,22.30
2017-11-22T09:32:16.022Z,20.40
2017-11-22T09:33:16.018Z,16.70
2017-11-22T09:34:16.015Z,17.50
2017-11-22T09:35:16.010Z,19.00
2017-11-22T09:36:16.006Z,17.10
2017-11-22T09:37:16.003Z,17.80
2017-11-22T09:38:15.999Z,17.80
2017-11-22T09:39:15.994Z,16.70
2017-11-22T09:40:15.994Z,17.80
2017-11-22T09:41:15.991Z,22.00
2017-11-22T09:42:15.986Z,18.40
2017-11-22T09:43:15.983Z,19.80
2017-11-22T09:44:15.975Z,16.00
2017-11-22T09:45:16.017Z,20.10
2017-11-22T09:46:15.968Z,15.40
2017-11-22T09:47:15.966Z,16.30
2017-11-22T09:48:15.967Z,16.50
2017-11-22T09:49:15.963Z,16.00
2017-11-22T09:50:15.960Z,17.00
2017-11-22T09:51:15.960Z,14.90
2017-11-22T09:52:15.957Z,18.70
2017-11-22T09:53:15.954Z,16.10
2017-11-22T09:54:15.953Z,14.30
2017-11-22T09:55:15.952Z,14.50
2017-11-22T09:56:15.947Z,15.70
2017-11-22T09:57:15.947Z,15.90
2017-11-22T09:58:15.943Z,19.30
2017-11-22T09:59:15.944Z,17.50
2017-11-22T10:00:15.942Z,15.50
2017-11-22T10:01:15.941Z,18.00
2017-11-22T10:02:15.973Z,17.20
2017-11-22T10:03:15.939Z,15.70
2017-11-22T10:04:15.941Z,18.50
2017-11-22T10:05:15.939Z,16.10
2017-11-22T10:06:15.940Z,15.40
2017-11-22T10:07:15.940Z,17.20
2017-11-22T10:08:15.937Z,16.60
2017-11-22T10:09:15.936Z,16.70
2017-11-22T10:10:15.936Z,16.20
2017-11-22T10:11:15.937Z,15.40
2017-11-22T10:12:15.933Z,17.10
2017-11-22T10:13:15.929Z,19.80
2017-11-22T10:14:15.932Z,17.90
2017-11-22T10:15:15.929Z,19.20
2017-11-22T10:16:15.930Z,14.00
2017-11-22T10:17:15.930Z,15.60
2017-11-22T10:18:15.928Z,14.50
2017-11-22T10:19:15.937Z,16.80
2017-11-22T10:20:15.933Z,16.10
2017-11-22T10:21:15.933Z,17.50
2017-11-22T10:22:15.932Z,18.00
2017-11-22T10:23:15.968Z,18.20
2017-11-22T10:24:15.937Z,17.20
2017-11-22T10:25:15.940Z,16.60
2017-11-22T10:26:15.933Z,17.80
2017-11-22T10:27:15.933Z,19.20
2017-11-22T10:28:15.931Z,16.40
2017-11-22T10:29:15.948Z,18.40
2017-11-22T10:30:15.930Z,17.90
2017-11-22T10:31:15.929Z,15.70
2017-11-22T10:32:15.928Z,18.70
2017-11-22T10:33:15.929Z,18.60
2017-11-22T10:34:15.929Z,21.40
2017-11-22T10:35:15.930Z,19.40
2017-11-22T10:36:15.932Z,17.30
2017-11-22T10:37:15.936Z,17.60
2017-11-22T10:38:15.931Z,19.30
2017-11-22T10:39:15.933Z,19.30
2017-11-22T10:40:15.931Z,19.80
2017-11-22T10:41:15.931Z,20.50
2017-11-22T10:42:15.932Z,18.40
2017-11-22T10:43:15.931Z,19.70
2017-11-22T10:44:15.924Z,21.20
2017-11-22T10:45:15.929Z,19.90
2017-11-22T10:46:15.925Z,18.20
2017-11-22T10:47:15.925Z,18.80
2017-11-22T10:48:15.928Z,18.20
2017-11-22T10:49:15.928Z,18.50
2017-11-22T10:50:15.926Z,22.60
2017-11-22T10:51:15.925Z,18.90
2017-11-22T10:52:15.924Z,16.50
2017-11-22T10:53:15.921Z,20.20
2017-11-22T10:54:15.922Z,18.60
2017-11-22T10:55:15.954Z,17.50
2017-11-22T10:56:15.922Z,17.90
2017-11-22T10:57:15.923Z,20.60
2017-11-22T10:58:15.924Z,18.70
2017-11-22T10:59:15.924Z,20.10
2017-11-22T11:00:15.928Z,17.60
2017-11-22T11:01:15.931Z,18.30
2017-11-22T11:02:15.932Z,17.70
2017-11-22T11:03:15.935Z,18.20
2017-11-22T11:04:15.931Z,17.90
2017-11-22T11:05:15.934Z,20.50
2017-11-22T11:06:15.936Z,18.10
2017-11-22T11:07:15.934Z,19.90
2017-11-22T11:08:15.929Z,20.40
2017-11-22T11:09:15.933Z,18.40
2017-11-22T11:10:15.933Z,17.70
2017-11-22T11:11:15.938Z,19.00
2017-11-22T11:12:15.929Z,19.40
2017-11-22T11:13:15.931Z,18.70
2017-11-22T11:14:15.930Z,18.40
2017-11-22T11:15:15.930Z,18.50
2017-11-22T11:16:15.933Z,17.40
2017-11-22T11:17:15.939Z,18.40
2017-11-22T11:18:15.933Z,20.30
2017-11-22T11:19:15.935Z,17.20
2017-11-22T11:20:15.932Z,16.10
2017-11-22T11:21:15.932Z,16.80
2017-11-22T11:22:15.932Z,16.70
2017-11-22T11:23:15.931Z,19.70
2017-11-22T11:24:15.925Z,15.60
2017-11-22T11:25:15.928Z,20.00
2017-11-22T11:26:15.925Z,18.00
2017-11-22T11:27:15.926Z,17.00
2017-11-22T11:28:15.924Z,17.90
2017-11-22T11:29:15.922Z,17.60
2017-11-22T11:30:15.921Z,20.40
2017-11-22T11:31:15.922Z,18.30
2017-11-22T11:32:15.923Z,17.50
2017-11-22T11:33:15.924Z,18.30
2017-11-22T11:34:15.926Z,18.60
2017-11-22T11:35:15.923Z,15.50
2017-11-22T11:36:15.920Z,18.20
2017-11-22T11:37:15.920Z,19.30
2017-11-22T11:38:15.919Z,16.00
2017-11-22T11:39:15.920Z,19.00
2017-11-22T11:40:15.913Z,16.30
2017-11-22T11:41:15.911Z,17.70
2017-11-22T11:42:15.910Z,17.60
2017-11-22T11:43:15.909Z,17.60
2017-11-22T11:44:15.908Z,18.50
2017-11-22T11:45:15.907Z,15.10
2017-11-22T11:46:15.906Z,13.90
2017-11-22T11:47:15.904Z,16.00
2017-11-22T11:48:15.907Z,14.90
2017-11-22T11:49:15.905Z,18.30
2017-11-22T11:50:15.905Z,16.70
2017-11-22T11:51:15.902Z,14.40
2017-11-22T11:52:15.900Z,16.70
2017-11-22T11:53:15.896Z,15.20
2017-11-22T11:54:15.897Z,19.30
2017-11-22T11:55:15.893Z,13.70
2017-11-22T11:56:15.893Z,17.20
2017-11-22T11:57:15.894Z,16.00
2017-11-22T11:58:15.892Z,15.30
2017-11-22T11:59:15.894Z,15.60
2017-11-22T12:00:15.887Z,15.00
2017-11-22T12:01:15.885Z,15.20
2017-11-22T12:02:15.886Z,14.70
2017-11-22T12:03:15.883Z,16.10
2017-11-22T12:04:15.877Z,14.10
2017-11-22T12:05:15.874Z,14.20
2017-11-22T12:06:15.877Z,15.50
2017-11-22T12:07:15.871Z,13.60
2017-11-22T12:08:15.868Z,14.80
2017-11-22T12:09:15.866Z,14.50
2017-11-22T12:10:15.864Z,17.60
2017-11-22T12:11:15.870Z,17.00
2017-11-22T12:12:15.863Z,15.60
2017-11-22T12:13:15.863Z,16.60
2017-11-22T12:14:15.860Z,14.60
2017-11-22T12:15:15.859Z,13.80
2017-11-22T12:16:15.855Z,13.20
2017-11-22T12:17:15.855Z,15.60
2017-11-22T12:18:15.851Z,13.40
2017-11-22T12:19:15.848Z,13.90
2017-11-22T12:20:15.842Z,14.30
2017-11-22T12:21:15.838Z,13.50
2017-11-22T12:22:15.836Z,13.30
2017-11-22T12:23:15.836Z,13.60
2017-11-22T12:24:15.834Z,12.90
2017-11-22T12:25:15.830Z,12.70
2017-11-22T12:26:15.830Z,12.90
2017-11-22T12:27:15.823Z,17.00
2017-11-22T12:28:15.826Z,12.40
2017-11-22T12:29:15.823Z,15.00
2017-11-22T12:30:15.821Z,13.00
2017-11-22T12:31:15.820Z,14.50
2017-11-22T12:32:15.815Z,14.00
2017-11-22T12:33:15.812Z,17.40
2017-11-22T12:34:15.809Z,15.10
2017-11-22T12:35:15.807Z,13.80
2017-11-22T12:36:15.799Z,14.00
2017-11-22T12:37:15.797Z,14.80
2017-11-22T12:38:15.793Z,12.60
2017-11-22T12:39:15.791Z,12.30
2017-11-22T12:40:15.788Z,13.10
2017-11-22T12:41:15.786Z,15.60
2017-11-22T12:42:15.783Z,14.50
2017-11-22T12:43:15.782Z,15.90
2017-11-22T12:44:15.781Z,16.00
2017-11-22T12:45:15.777Z,13.40
2017-11-22T12:46:15.775Z,14.50
2017-11-22T12:47:15.773Z,15.10
2017-11-22T12:48:15.774Z,13.50
2017-11-22T12:49:15.766Z,13.10
2017-11-22T12:50:15.766Z,14.70
2017-11-22T12:51:15.760Z,15.10
2017-11-22T12:52:15.752Z,13.90